createdAt,value
2022-09-22T00:01:43.435Z,92.50
2022-09-22T00:04:15.938Z,92.50
2022-09-22T00:06:55.939Z,92.50
2022-09-22T00:09:24.718Z,92.50
2022-09-22T00:11:54.521Z,92.40
2022-09-22T00:14:27.953Z,92.50
2022-09-22T00:16:59.469Z,92.50
2022-09-22T00:19:38.798Z,92.30
2022-09-22T00:22:07.348Z,92.30
2022-09-22T00:24:35.654Z,92.20
2022-09-22T00:27:03.982Z,92.20
2022-09-22T00:29:32.183Z,92.30
2022-09-22T00:32:06.975Z,92.30
2022-09-22T00:34:35.492Z,92.30
2022-09-22T00:37:03.592Z,92.30
2022-09-22T00:39:32.470Z,92.20
2022-09-22T00:42:03.045Z,92.10
2022-09-22T00:44:37.077Z,92.40
2022-09-22T00:47:20.205Z,92.50
2022-09-22T00:50:09.567Z,92.60
2022-09-22T00:53:20.389Z,92.60
2022-09-22T00:55:58.486Z,92.60
2022-09-22T00:58:37.200Z,92.70
2022-09-22T01:01:08.414Z,92.60
2022-09-22T01:03:39.738Z,92.60
2022-09-22T01:06:12.712Z,92.80
2022-09-22T01:08:41.312Z,92.90
2022-09-22T01:11:09.330Z,92.70
2022-09-22T01:14:04.655Z,92.60
2022-09-22T01:17:01.716Z,92.70
2022-09-22T01:19:32.527Z,92.80
2022-09-22T01:22:33.559Z,93.00
2022-09-22T01:25:11.225Z,93.10
2022-09-22T01:27:57.775Z,93.10
2022-09-22T01:30:37.575Z,93.10
2022-09-22T01:33:23.167Z,93.30
2022-09-22T01:36:30.090Z,93.30
2022-09-22T01:39:21.614Z,93.30
2022-09-22T01:41:59.583Z,92.90
2022-09-22T01:44:46.536Z,93.10
2022-09-22T01:47:22.329Z,93.50
2022-09-22T01:49:58.544Z,93.80
2022-09-22T01:52:29.672Z,94.30
2022-09-22T01:55:31.070Z,94.20
2022-09-22T01:58:13.274Z,94.30
2022-09-22T02:00:46.161Z,94.40
2022-09-22T02:03:27.291Z,94.50
2022-09-22T02:06:01.027Z,94.30
2022-09-22T02:08:51.568Z,94.20
2022-09-22T02:11:19.902Z,94.20
2022-09-22T02:13:48.095Z,94.50
2022-09-22T02:16:22.251Z,94.20
2022-09-22T02:19:14.509Z,94.20
2022-09-22T02:21:46.316Z,94.20
2022-09-22T02:24:41.596Z,94.30
2022-09-22T02:27:26.181Z,94.50
2022-09-22T02:29:58.155Z,95.30
2022-09-22T02:32:28.084Z,95.60
2022-09-22T02:34:56.705Z,95.60
2022-09-22T02:37:41.175Z,95.60
2022-09-22T02:40:12.255Z,96.00
2022-09-22T02:43:04.404Z,96.00
2022-09-22T02:45:44.743Z,95.90
2022-09-22T02:48:35.305Z,95.70
2022-09-22T02:51:03.825Z,95.70
2022-09-22T02:53:33.855Z,95.50
2022-09-22T02:56:02.555Z,95.50
2022-09-22T02:58:30.440Z,95.40
2022-09-22T03:00:58.722Z,95.40
2022-09-22T03:03:26.603Z,95.00
2022-09-22T03:05:54.451Z,94.90
2022-09-22T03:08:22.374Z,94.90
2022-09-22T03:10:50.495Z,95.00
2022-09-22T03:13:18.457Z,94.80
2022-09-22T03:15:47.735Z,94.60
2022-09-22T03:18:16.083Z,94.70
2022-09-22T03:20:44.147Z,94.90
2022-09-22T03:23:12.082Z,94.50
2022-09-22T03:25:40.228Z,94.60
2022-09-22T03:28:08.230Z,94.50
2022-09-22T03:30:37.850Z,94.60
2022-09-22T03:33:05.913Z,94.80
2022-09-22T03:35:37.115Z,94.80
2022-09-22T03:38:05.299Z,94.70
2022-09-22T03:40:33.613Z,94.90
2022-09-22T03:43:01.998Z,94.70
2022-09-22T03:45:30.085Z,94.70
2022-09-22T03:47:59.509Z,94.70
2022-09-22T03:50:29.208Z,94.80
2022-09-22T03:52:58.285Z,95.00
2022-09-22T03:55:26.345Z,95.00
2022-09-22T03:57:54.863Z,95.00
2022-09-22T04:00:22.803Z,95.00
2022-09-22T04:02:50.840Z,95.00
2022-09-22T04:05:19.231Z,95.10
2022-09-22T04:07:47.530Z,95.10
2022-09-22T04:10:15.609Z,95.00
2022-09-22T04:12:46.807Z,95.00
2022-09-22T04:15:15.494Z,95.00
2022-09-22T04:17:43.547Z,95.10
2022-09-22T04:20:12.460Z,95.10
2022-09-22T04:22:41.589Z,95.00
2022-09-22T04:25:10.108Z,95.00
2022-09-22T04:27:37.906Z,95.00
2022-09-22T04:30:06.694Z,95.20
2022-09-22T04:32:34.706Z,95.10
2022-09-22T04:35:03.033Z,95.30
2022-09-22T04:37:31.068Z,95.40
2022-09-22T04:40:00.413Z,95.40
2022-09-22T04:42:28.264Z,95.30
2022-09-22T04:45:02.461Z,95.10
2022-09-22T04:47:31.135Z,95.20
2022-09-22T04:49:59.815Z,95.30
2022-09-22T04:52:27.810Z,95.30
2022-09-22T04:54:55.869Z,95.30
2022-09-22T04:57:24.434Z,95.30
2022-09-22T04:59:52.367Z,95.30
2022-09-22T05:02:20.807Z,95.30
2022-09-22T05:04:48.692Z,95.40
2022-09-22T05:07:16.647Z,95.40
2022-09-22T05:09:44.540Z,95.60
2022-09-22T05:12:13.703Z,95.70
2022-09-22T05:14:43.574Z,95.80
2022-09-22T05:17:12.631Z,96.00
2022-09-22T05:19:41.260Z,96.30
2022-09-22T05:22:10.582Z,96.40
2022-09-22T05:24:39.334Z,96.50
2022-09-22T05:27:08.410Z,96.70
2022-09-22T05:29:37.049Z,96.90
2022-09-22T05:32:05.597Z,97.10
2022-09-22T05:34:34.023Z,97.30
2022-09-22T05:37:02.425Z,97.70
2022-09-22T05:39:32.608Z,98.40
2022-09-22T05:42:00.767Z,98.80
2022-09-22T05:44:28.900Z,99.20
2022-09-22T05:46:58.316Z,99.30
2022-09-22T05:49:26.937Z,99.50
2022-09-22T05:51:57.822Z,99.40
2022-09-22T05:54:26.677Z,99.40
2022-09-22T05:56:56.665Z,99.50
2022-09-22T05:59:25.383Z,99.40
2022-09-22T06:01:59.334Z,99.40
2022-09-22T06:04:29.439Z,99.50
2022-09-22T06:06:57.646Z,99.40
2022-09-22T06:09:25.580Z,99.70
2022-09-22T06:11:57.107Z,99.80
2022-09-22T06:14:28.275Z,99.90
2022-09-22T06:16:56.980Z,99.90
2022-09-22T06:19:25.089Z,99.90
2022-09-22T06:21:53.808Z,99.70
2022-09-22T06:24:22.896Z,99.50
2022-09-22T06:26:51.256Z,99.20
2022-09-22T06:29:20.259Z,98.60
2022-09-22T06:31:49.959Z,98.20
2022-09-22T06:34:19.325Z,98.00
2022-09-22T06:36:47.333Z,97.90
2022-09-22T06:39:15.490Z,97.70
2022-09-22T06:41:45.338Z,97.40
2022-09-22T06:44:15.765Z,97.20
2022-09-22T06:46:43.704Z,96.90
2022-09-22T06:49:12.093Z,96.60
2022-09-22T06:51:40.784Z,96.30
2022-09-22T06:54:09.649Z,96.20
2022-09-22T06:56:43.483Z,96.50
2022-09-22T06:59:14.809Z,96.40
2022-09-22T07:01:45.289Z,95.70
2022-09-22T07:04:14.534Z,95.10
2022-09-22T07:06:43.153Z,95.10
2022-09-22T07:09:13.008Z,94.90
2022-09-22T07:11:41.004Z,95.00
2022-09-22T07:14:09.346Z,94.90
2022-09-22T07:16:37.891Z,94.50
2022-09-22T07:19:06.053Z,94.10
2022-09-22T07:21:38.433Z,93.90
2022-09-22T07:24:10.124Z,93.60
2022-09-22T07:26:40.393Z,93.20
2022-09-22T07:29:13.743Z,93.30
2022-09-22T07:31:42.227Z,93.50
2022-09-22T07:34:10.977Z,93.80
2022-09-22T07:36:39.668Z,94.10
2022-09-22T07:39:11.462Z,94.30
2022-09-22T07:41:43.922Z,95.00
2022-09-22T07:44:32.871Z,95.30
2022-09-22T07:47:02.126Z,94.90
2022-09-22T07:49:31.285Z,94.70
2022-09-22T07:51:59.328Z,94.60
2022-09-22T07:54:28.331Z,94.60
2022-09-22T07:56:59.279Z,94.70
2022-09-22T07:59:28.011Z,94.70
2022-09-22T08:01:56.155Z,94.60
2022-09-22T08:04:24.856Z,94.60
2022-09-22T08:06:55.859Z,94.50
2022-09-22T08:09:25.673Z,94.50
2022-09-22T08:11:54.173Z,94.10
2022-09-22T08:14:24.198Z,93.60
2022-09-22T08:16:54.152Z,93.20
2022-09-22T08:19:24.262Z,92.30
2022-09-22T08:21:54.780Z,91.60
2022-09-22T08:24:23.824Z,91.10
2022-09-22T08:26:54.789Z,90.60
2022-09-22T08:29:24.586Z,90.80
2022-09-22T08:31:54.555Z,90.80
2022-09-22T08:34:23.315Z,90.80
2022-09-22T08:36:51.369Z,90.90
2022-09-22T08:39:19.715Z,91.20
2022-09-22T08:42:10.951Z,90.90
2022-09-22T08:45:01.899Z,91.00
2022-09-22T08:47:57.649Z,91.50
2022-09-22T08:51:09.063Z,91.40
2022-09-22T08:53:45.103Z,91.50
2022-09-22T08:56:41.703Z,92.20
2022-09-22T08:59:21.640Z,93.00
2022-09-22T09:02:02.947Z,94.00
2022-09-22T09:04:43.313Z,95.00
2022-09-22T09:07:24.488Z,95.80
2022-09-22T09:09:58.905Z,96.30
2022-09-22T09:12:53.985Z,96.50
2022-09-22T09:15:46.012Z,96.40
2022-09-22T09:18:23.807Z,96.40
2022-09-22T09:20:52.648Z,95.30
2022-09-22T09:25:21.812Z,96.00
2022-09-22T09:26:18.703Z,95.60
2022-09-22T09:28:55.137Z,94.70
2022-09-22T09:31:42.683Z,94.80
2022-09-22T09:34:18.235Z,94.80
2022-09-22T09:37:12.629Z,94.80
2022-09-22T09:39:42.860Z,94.40
2022-09-22T09:42:35.389Z,93.70
2022-09-22T09:45:05.167Z,93.10
2022-09-22T09:47:59.211Z,92.70
2022-09-22T09:50:32.634Z,92.00
2022-09-22T09:53:01.333Z,91.40
2022-09-22T09:55:34.005Z,91.50
2022-09-22T09:58:08.707Z,91.90
2022-09-22T10:00:56.801Z,90.80
2022-09-22T10:03:31.518Z,90.50
2022-09-22T10:06:12.128Z,90.20
2022-09-22T10:08:52.087Z,89.90
2022-09-22T10:11:31.937Z,87.90
2022-09-22T10:14:00.370Z,85.60
2022-09-22T10:16:34.731Z,82.50
2022-09-22T10:19:27.400Z,81.80
2022-09-22T10:22:25.314Z,80.40
2022-09-22T10:25:01.953Z,80.10
2022-09-22T10:27:32.172Z,79.00
2022-09-22T10:30:12.247Z,78.50
2022-09-22T10:32:41.395Z,79.30
2022-09-22T10:35:30.644Z,78.10
2022-09-22T10:38:08.344Z,79.10
2022-09-22T10:40:40.662Z,79.10
2022-09-22T10:43:27.134Z,80.00
2022-09-22T10:46:10.599Z,80.60
2022-09-22T10:48:49.664Z,81.00
2022-09-22T10:51:40.597Z,81.40
2022-09-22T10:54:42.551Z,80.30
2022-09-22T10:57:52.437Z,80.50
2022-09-22T11:00:26.475Z,81.10
2022-09-22T11:03:19.191Z,80.90
2022-09-22T11:06:32.779Z,80.40
2022-09-22T11:09:50.015Z,79.60
2022-09-22T11:12:54.878Z,78.30
2022-09-22T11:15:28.802Z,77.40
2022-09-22T11:18:19.519Z,77.30
2022-09-22T11:21:02.333Z,77.40
2022-09-22T11:24:03.363Z,77.90
2022-09-22T11:26:40.300Z,78.60
2022-09-22T11:29:29.657Z,79.30
2022-09-22T11:32:26.052Z,78.80
2022-09-22T11:35:08.959Z,79.30
2022-09-22T11:37:54.189Z,79.90
2022-09-22T11:40:43.950Z,80.10
2022-09-22T11:43:44.421Z,80.70
2022-09-22T11:46:41.609Z,80.90
2022-09-22T11:49:35.457Z,81.50
2022-09-22T11:52:21.375Z,81.60
2022-09-22T11:55:00.484Z,82.00
2022-09-22T11:57:39.504Z,81.60
2022-09-22T12:00:22.019Z,81.70
2022-09-22T12:03:02.796Z,81.60
2022-09-22T12:05:42.623Z,81.70
2022-09-22T12:08:20.134Z,82.00
2022-09-22T12:10:50.632Z,82.50
2022-09-22T12:13:27.821Z,83.30
2022-09-22T12:16:39.808Z,84.30
2022-09-22T12:19:22.582Z,85.10
2022-09-22T12:22:01.394Z,84.70
2022-09-22T12:24:29.565Z,83.10
2022-09-22T12:26:57.548Z,81.70
2022-09-22T12:29:31.675Z,80.80
2022-09-22T12:32:00.350Z,80.80
2022-09-22T12:34:35.631Z,81.30
2022-09-22T12:37:19.825Z,81.10
2022-09-22T12:39:50.195Z,81.30
2022-09-22T12:42:33.666Z,81.40
2022-09-22T12:45:10.895Z,81.20
2022-09-22T12:47:42.153Z,81.60
2022-09-22T12:50:43.675Z,81.60
2022-09-22T12:53:23.824Z,81.20
2022-09-22T12:55:53.511Z,81.60
2022-09-22T12:58:21.241Z,82.00
2022-09-22T13:00:50.891Z,82.00
2022-09-22T13:03:30.927Z,82.40
2022-09-22T13:06:04.617Z,82.70
2022-09-22T13:08:32.906Z,82.60
2022-09-22T13:11:08.725Z,82.50
2022-09-22T13:13:44.144Z,82.60
2022-09-22T13:16:14.946Z,82.50
2022-09-22T13:19:04.204Z,82.50
2022-09-22T13:21:33.826Z,82.70
2022-09-22T13:24:04.183Z,83.00
2022-09-22T13:26:39.242Z,82.40
2022-09-22T13:29:07.252Z,82.20
2022-09-22T13:31:45.534Z,82.30
2022-09-22T13:34:35.260Z,83.10
2022-09-22T13:37:09.106Z,83.30
2022-09-22T13:39:47.091Z,83.40
2022-09-22T13:42:34.755Z,83.30
2022-09-22T13:45:08.524Z,83.20
2022-09-22T13:47:37.223Z,83.30
2022-09-22T13:50:14.017Z,83.30
2022-09-22T13:52:42.786Z,83.10
2022-09-22T13:55:17.932Z,83.20
2022-09-22T13:57:47.327Z,83.40
2022-09-22T14:01:08.656Z,83.90
2022-09-22T14:03:38.679Z,84.00
2022-09-22T14:06:13.341Z,84.40
2022-09-22T14:08:42.316Z,84.80
2022-09-22T14:11:18.982Z,84.60
2022-09-22T14:13:58.832Z,84.80
2022-09-22T14:16:58.159Z,84.80
2022-09-22T14:19:35.196Z,85.20
2022-09-22T14:22:16.383Z,85.10
2022-09-22T14:24:48.780Z,84.90
2022-09-22T14:27:28.281Z,84.50
2022-09-22T14:29:59.880Z,84.30
2022-09-22T14:32:40.279Z,84.50
2022-09-22T14:35:17.104Z,84.10
2022-09-22T14:37:49.630Z,84.90
2022-09-22T14:40:23.533Z,84.60
2022-09-22T14:43:09.259Z,84.80
2022-09-22T14:45:39.263Z,84.00
2022-09-22T14:48:34.660Z,83.90
2022-09-22T14:51:13.056Z,84.20
2022-09-22T14:53:43.873Z,84.40
2022-09-22T14:56:34.148Z,84.80
2022-09-22T14:59:26.774Z,84.70
2022-09-22T15:02:15.449Z,85.20
2022-09-22T15:04:50.995Z,85.20
2022-09-22T15:07:26.296Z,85.90
2022-09-22T15:09:58.860Z,85.60
2022-09-22T15:12:36.649Z,85.90
2022-09-22T15:15:17.672Z,86.20
2022-09-22T15:18:07.561Z,86.20
2022-09-22T15:20:44.771Z,86.10
2022-09-22T15:23:27.551Z,87.00
2022-09-22T15:25:57.038Z,86.10
2022-09-22T15:28:27.315Z,86.10
2022-09-22T15:30:55.468Z,86.00
2022-09-22T15:33:27.478Z,86.40
2022-09-22T15:36:01.896Z,87.00
2022-09-22T15:38:35.798Z,86.90
2022-09-22T15:41:03.894Z,86.90
2022-09-22T15:43:32.631Z,87.10
2022-09-22T15:46:06.497Z,87.30
2022-09-22T15:48:37.818Z,87.90
2022-09-22T15:51:10.506Z,88.10
2022-09-22T15:53:39.086Z,88.10
2022-09-22T15:56:13.177Z,88.10
2022-09-22T15:58:44.109Z,88.40
2022-09-22T16:01:12.260Z,88.80
2022-09-22T16:03:41.528Z,88.90
2022-09-22T16:06:15.498Z,89.00
2022-09-22T16:08:47.253Z,89.20
2022-09-22T16:11:29.790Z,89.30
2022-09-22T16:14:11.104Z,89.50
2022-09-22T16:16:40.227Z,89.80
2022-09-22T16:19:08.807Z,89.90
2022-09-22T16:21:38.786Z,89.60
2022-09-22T16:24:09.983Z,89.90
2022-09-22T16:26:40.480Z,90.00
2022-09-22T16:29:09.475Z,89.90
2022-09-22T16:31:38.216Z,90.00
2022-09-22T16:34:07.799Z,90.10
2022-09-22T16:36:37.514Z,90.20
2022-09-22T16:39:06.039Z,90.30
2022-09-22T16:41:36.570Z,90.50
2022-09-22T16:44:06.045Z,90.60
2022-09-22T16:46:34.689Z,90.70
2022-09-22T16:49:12.544Z,90.80
2022-09-22T16:51:42.685Z,90.90
2022-09-22T16:54:14.407Z,90.80
2022-09-22T16:56:47.602Z,90.80
2022-09-22T16:59:23.585Z,90.90
2022-09-22T17:01:52.807Z,91.00
2022-09-22T17:04:21.113Z,91.00
2022-09-22T17:06:50.061Z,90.90
2022-09-22T17:09:21.979Z,90.90
2022-09-22T17:11:50.404Z,91.00
2022-09-22T17:14:26.069Z,91.10
2022-09-22T17:16:57.168Z,91.20
2022-09-22T17:19:28.030Z,91.40
2022-09-22T17:21:57.259Z,91.40
2022-09-22T17:24:26.998Z,91.60
2022-09-22T17:26:58.248Z,91.90
2022-09-22T17:29:28.700Z,92.20
2022-09-22T17:32:06.246Z,92.40
2022-09-22T17:34:35.250Z,92.60
2022-09-22T17:37:03.641Z,92.60
2022-09-22T17:39:32.951Z,92.70
2022-09-22T17:42:00.818Z,92.90
2022-09-22T17:44:33.850Z,93.10
2022-09-22T17:47:19.849Z,92.90
2022-09-22T17:50:05.995Z,92.90
2022-09-22T17:52:40.253Z,92.80
2022-09-22T17:55:19.578Z,92.80
2022-09-22T17:57:47.507Z,92.70
2022-09-22T18:00:21.982Z,92.80
2022-09-22T18:02:52.900Z,92.80
2022-09-22T18:05:26.116Z,93.00
2022-09-22T18:07:58.866Z,93.00
2022-09-22T18:10:31.473Z,93.40
2022-09-22T18:13:00.101Z,93.20
2022-09-22T18:15:28.715Z,93.30
2022-09-22T18:17:58.633Z,93.20
2022-09-22T18:20:27.941Z,93.20
2022-09-22T18:22:58.128Z,93.40
2022-09-22T18:25:28.601Z,93.40
2022-09-22T18:27:58.264Z,93.50
2022-09-22T18:30:29.422Z,93.60
2022-09-22T18:32:57.626Z,93.50
2022-09-22T18:35:29.496Z,93.60
2022-09-22T18:37:57.881Z,93.50
2022-09-22T18:40:26.821Z,93.50
2022-09-22T18:42:56.972Z,93.60
2022-09-22T18:45:25.887Z,93.80
2022-09-22T18:47:54.089Z,93.90
2022-09-22T18:50:22.130Z,93.90
2022-09-22T18:52:54.697Z,93.90
2022-09-22T18:55:22.811Z,93.90
2022-09-22T18:57:51.001Z,94.00
2022-09-22T19:00:22.307Z,94.10
2022-09-22T19:02:53.653Z,94.20
2022-09-22T19:05:21.900Z,94.30
2022-09-22T19:07:54.003Z,94.50
2022-09-22T19:10:22.736Z,94.40
2022-09-22T19:12:54.907Z,94.50
2022-09-22T19:15:24.044Z,94.60
2022-09-22T19:17:52.691Z,94.70
2022-09-22T19:20:28.080Z,94.80
2022-09-22T19:22:56.088Z,94.80
2022-09-22T19:25:24.569Z,94.80
2022-09-22T19:27:53.868Z,94.80
2022-09-22T19:30:26.636Z,94.80
2022-09-22T19:32:57.831Z,94.70
2022-09-22T19:35:28.634Z,94.70
2022-09-22T19:37:56.770Z,94.60
2022-09-22T19:40:25.495Z,94.70
2022-09-22T19:42:54.666Z,94.80
2022-09-22T19:45:24.337Z,94.80
2022-09-22T19:47:54.477Z,94.70
2022-09-22T19:50:22.718Z,94.80
2022-09-22T19:53:02.361Z,94.80
2022-09-22T19:55:33.651Z,95.00
2022-09-22T19:58:01.889Z,94.70
2022-09-22T20:00:29.906Z,94.70
2022-09-22T20:03:01.815Z,94.80
2022-09-22T20:05:37.210Z,94.80
2022-09-22T20:08:18.283Z,94.90
2022-09-22T20:10:58.377Z,94.90
2022-09-22T20:13:57.301Z,94.90
2022-09-22T20:16:28.649Z,94.90
2022-09-22T20:18:56.896Z,94.90
2022-09-22T20:21:28.483Z,94.90
2022-09-22T20:23:56.941Z,94.90
2022-09-22T20:26:25.723Z,94.70
2022-09-22T20:28:54.981Z,94.70
2022-09-22T20:31:26.176Z,94.40
2022-09-22T20:34:00.357Z,94.50
2022-09-22T20:36:36.508Z,94.50
2022-09-22T20:39:06.526Z,94.60
2022-09-22T20:41:39.040Z,94.60
2022-09-22T20:44:07.578Z,94.60
2022-09-22T20:46:35.428Z,94.60
2022-09-22T20:49:05.698Z,94.70
2022-09-22T20:51:34.526Z,94.60
2022-09-22T20:54:02.411Z,94.60
2022-09-22T20:56:30.576Z,94.60
2022-09-22T20:58:58.554Z,94.70
2022-09-22T21:01:26.984Z,94.70
2022-09-22T21:03:56.477Z,94.70
2022-09-22T21:06:25.269Z,94.70
2022-09-22T21:09:11.561Z,94.80
2022-09-22T21:11:40.302Z,94.70
2022-09-22T21:14:08.481Z,94.70
2022-09-22T21:16:40.365Z,94.40
2022-09-22T21:19:09.094Z,94.40
2022-09-22T21:21:38.403Z,94.40
2022-09-22T21:24:07.038Z,94.50
2022-09-22T21:26:34.961Z,94.50
2022-09-22T21:29:02.912Z,94.60
2022-09-22T21:31:31.231Z,94.50
2022-09-22T21:33:59.407Z,94.40
2022-09-22T21:36:27.515Z,94.50
2022-09-22T21:38:58.213Z,94.30
2022-09-22T21:41:29.099Z,94.40
2022-09-22T21:43:57.970Z,94.50
2022-09-22T21:46:31.671Z,94.60
2022-09-22T21:49:02.424Z,94.50
2022-09-22T21:51:42.820Z,94.50
2022-09-22T21:54:17.145Z,94.50
2022-09-22T21:56:46.104Z,94.50
2022-09-22T21:59:14.928Z,94.50
2022-09-22T22:01:45.576Z,94.50
2022-09-22T22:04:17.997Z,94.50
2022-09-22T22:06:47.079Z,94.50
2022-09-22T22:09:18.716Z,94.40
2022-09-22T22:11:54.368Z,94.40
2022-09-22T22:14:23.960Z,94.40
2022-09-22T22:16:54.140Z,94.30
2022-09-22T22:19:25.342Z,94.40
2022-09-22T22:21:54.848Z,94.40
2022-09-22T22:24:29.209Z,94.40
2022-09-22T22:27:06.413Z,94.40
2022-09-22T22:29:39.096Z,94.50
2022-09-22T22:32:09.744Z,94.50
2022-09-22T22:34:38.109Z,94.60
2022-09-22T22:37:09.879Z,94.50
2022-09-22T22:39:38.391Z,94.50
2022-09-22T22:42:07.359Z,94.40
2022-09-22T22:44:35.700Z,94.30
2022-09-22T22:47:03.967Z,94.40
2022-09-22T22:49:32.940Z,94.50
2022-09-22T22:52:00.892Z,94.50
2022-09-22T22:54:28.800Z,94.60
2022-09-22T22:56:56.847Z,94.50
2022-09-22T22:59:24.917Z,94.50
2022-09-22T23:01:52.762Z,94.50
2022-09-22T23:04:21.970Z,94.50
2022-09-22T23:06:50.075Z,94.50
2022-09-22T23:09:18.370Z,94.50
2022-09-22T23:11:46.747Z,94.50
2022-09-22T23:14:16.535Z,94.50
2022-09-22T23:16:47.410Z,94.50
2022-09-22T23:19:18.279Z,94.50
2022-09-22T23:21:46.774Z,94.50
2022-09-22T23:24:17.049Z,94.50
2022-09-22T23:26:46.537Z,94.50
2022-09-22T23:29:15.040Z,94.60
2022-09-22T23:31:43.386Z,94.40
2022-09-22T23:34:13.298Z,94.50
2022-09-22T23:36:41.331Z,94.60
2022-09-22T23:39:12.119Z,94.60
2022-09-22T23:41:40.187Z,94.40
2022-09-22T23:44:08.419Z,94.40
2022-09-22T23:46:38.467Z,94.40
2022-09-22T23:49:07.129Z,94.30
2022-09-22T23:51:35.196Z,94.40
2022-09-22T23:54:06.729Z,94.20
2022-09-22T23:56:38.245Z,94.30
2022-09-22T23:59:06.554Z,94.20
